sensor_id;sensor_type;location;lat;lon;timestamp;P1;durP1;ratioP1;P2;durP2;ratioP2
18259;SDS011;9256;52.236;5.712;2023-07-16T00:01:51;4.75;;;1.40;;
18259;SDS011;9256;52.236;5.712;2023-07-16T00:04:18;7.55;;;1.67;;
18259;SDS011;9256;52.236;5.712;2023-07-16T00:06:45;6.53;;;1.70;;
18259;SDS011;9256;52.236;5.712;2023-07-16T00:09:12;4.30;;;1.50;;
18259;SDS011;9256;52.236;5.712;2023-07-16T00:11:40;9.75;;;1.85;;
18259;SDS011;9256;52.236;5.712;2023-07-16T00:14:07;10.93;;;1.77;;
18259;SDS011;9256;52.236;5.712;2023-07-16T00:16:36;6.70;;;1.50;;
18259;SDS011;9256;52.236;5.712;2023-07-16T00:19:03;8.32;;;1.80;;
18259;SDS011;9256;52.236;5.712;2023-07-16T00:21:30;7.90;;;2.03;;
18259;SDS011;9256;52.236;5.712;2023-07-16T00:23:57;5.47;;;1.67;;
18259;SDS011;9256;52.236;5.712;2023-07-16T00:26:24;6.18;;;1.63;;
18259;SDS011;9256;52.236;5.712;2023-07-16T00:28:52;8.70;;;1.90;;
18259;SDS011;9256;52.236;5.712;2023-07-16T00:31:19;6.07;;;1.75;;
18259;SDS011;9256;52.236;5.712;2023-07-16T00:33:46;5.13;;;1.50;;
18259;SDS011;9256;52.236;5.712;2023-07-16T00:36:13;5.28;;;1.50;;
18259;SDS011;9256;52.236;5.712;2023-07-16T00:38:40;8.32;;;1.95;;
18259;SDS011;9256;52.236;5.712;2023-07-16T00:41:07;9.07;;;2.00;;
18259;SDS011;9256;52.236;5.712;2023-07-16T00:43:34;10.07;;;2.28;;
18259;SDS011;9256;52.236;5.712;2023-07-16T00:46:03;8.65;;;1.60;;
18259;SDS011;9256;52.236;5.712;2023-07-16T00:48:30;7.10;;;1.85;;
18259;SDS011;9256;52.236;5.712;2023-07-16T00:50:57;7.80;;;2.03;;
18259;SDS011;9256;52.236;5.712;2023-07-16T00:53:26;8.48;;;1.98;;
18259;SDS011;9256;52.236;5.712;2023-07-16T00:55:53;8.30;;;2.00;;
18259;SDS011;9256;52.236;5.712;2023-07-16T00:58:20;6.80;;;1.98;;
18259;SDS011;9256;52.236;5.712;2023-07-16T01:00:47;6.65;;;1.80;;
18259;SDS011;9256;52.236;5.712;2023-07-16T01:03:15;6.82;;;1.90;;
18259;SDS011;9256;52.236;5.712;2023-07-16T01:05:45;8.02;;;1.98;;
18259;SDS011;9256;52.236;5.712;2023-07-16T01:08:18;6.97;;;1.80;;
18259;SDS011;9256;52.236;5.712;2023-07-16T01:10:48;10.95;;;2.10;;
18259;SDS011;9256;52.236;5.712;2023-07-16T01:13:16;9.35;;;2.10;;
18259;SDS011;9256;52.236;5.712;2023-07-16T01:15:43;8.23;;;2.10;;
18259;SDS011;9256;52.236;5.712;2023-07-16T01:18:10;6.78;;;1.80;;
18259;SDS011;9256;52.236;5.712;2023-07-16T01:20:38;8.60;;;2.38;;
18259;SDS011;9256;52.236;5.712;2023-07-16T01:26:05;8.77;;;1.75;;
18259;SDS011;9256;52.236;5.712;2023-07-16T01:28:48;6.32;;;1.83;;
18259;SDS011;9256;52.236;5.712;2023-07-16T01:31:33;6.20;;;1.90;;
18259;SDS011;9256;52.236;5.712;2023-07-16T01:34:00;9.20;;;2.10;;
18259;SDS011;9256;52.236;5.712;2023-07-16T01:36:31;8.13;;;2.10;;
18259;SDS011;9256;52.236;5.712;2023-07-16T01:38:59;8.17;;;2.33;;
18259;SDS011;9256;52.236;5.712;2023-07-16T01:41:27;8.43;;;2.10;;
18259;SDS011;9256;52.236;5.712;2023-07-16T01:43:54;11.90;;;2.60;;
18259;SDS011;9256;52.236;5.712;2023-07-16T01:46:22;8.23;;;2.60;;
18259;SDS011;9256;52.236;5.712;2023-07-16T01:48:49;8.00;;;2.15;;
18259;SDS011;9256;52.236;5.712;2023-07-16T01:51:16;7.90;;;2.30;;
18259;SDS011;9256;52.236;5.712;2023-07-16T01:53:45;10.10;;;2.60;;
18259;SDS011;9256;52.236;5.712;2023-07-16T01:56:12;6.65;;;2.22;;
18259;SDS011;9256;52.236;5.712;2023-07-16T01:58:39;8.65;;;2.20;;
18259;SDS011;9256;52.236;5.712;2023-07-16T02:01:06;9.02;;;2.42;;
18259;SDS011;9256;52.236;5.712;2023-07-16T02:03:34;7.43;;;2.25;;
18259;SDS011;9256;52.236;5.712;2023-07-16T02:06:01;7.18;;;2.05;;
18259;SDS011;9256;52.236;5.712;2023-07-16T02:08:28;9.48;;;2.35;;
18259;SDS011;9256;52.236;5.712;2023-07-16T02:10:55;8.40;;;2.15;;
18259;SDS011;9256;52.236;5.712;2023-07-16T02:13:22;9.32;;;2.42;;
18259;SDS011;9256;52.236;5.712;2023-07-16T02:15:49;7.18;;;2.10;;
18259;SDS011;9256;52.236;5.712;2023-07-16T02:18:15;8.63;;;2.22;;
18259;SDS011;9256;52.236;5.712;2023-07-16T02:20:44;8.75;;;2.50;;
18259;SDS011;9256;52.236;5.712;2023-07-16T02:23:11;6.85;;;2.25;;
18259;SDS011;9256;52.236;5.712;2023-07-16T02:25:38;10.30;;;2.42;;
18259;SDS011;9256;52.236;5.712;2023-07-16T02:28:04;8.80;;;2.50;;
18259;SDS011;9256;52.236;5.712;2023-07-16T02:30:31;7.47;;;2.83;;
18259;SDS011;9256;52.236;5.712;2023-07-16T02:32:58;9.65;;;2.78;;
18259;SDS011;9256;52.236;5.712;2023-07-16T02:35:25;9.23;;;2.50;;
18259;SDS011;9256;52.236;5.712;2023-07-16T02:37:54;7.85;;;2.83;;
18259;SDS011;9256;52.236;5.712;2023-07-16T02:40:21;9.77;;;2.88;;
18259;SDS011;9256;52.236;5.712;2023-07-16T02:42:48;10.73;;;2.65;;
18259;SDS011;9256;52.236;5.712;2023-07-16T02:45:15;11.05;;;2.75;;
18259;SDS011;9256;52.236;5.712;2023-07-16T02:47:42;8.00;;;2.90;;
18259;SDS011;9256;52.236;5.712;2023-07-16T02:50:09;6.10;;;2.50;;
18259;SDS011;9256;52.236;5.712;2023-07-16T02:52:36;12.27;;;2.70;;
18259;SDS011;9256;52.236;5.712;2023-07-16T02:55:05;9.15;;;2.70;;
18259;SDS011;9256;52.236;5.712;2023-07-16T02:57:32;10.20;;;3.15;;
18259;SDS011;9256;52.236;5.712;2023-07-16T02:59:59;10.43;;;3.30;;
18259;SDS011;9256;52.236;5.712;2023-07-16T03:02:26;10.93;;;2.80;;
18259;SDS011;9256;52.236;5.712;2023-07-16T03:04:53;8.40;;;3.17;;
18259;SDS011;9256;52.236;5.712;2023-07-16T03:07:20;14.63;;;2.72;;
18259;SDS011;9256;52.236;5.712;2023-07-16T03:09:47;10.35;;;2.95;;
18259;SDS011;9256;52.236;5.712;2023-07-16T03:12:15;12.55;;;2.80;;
18259;SDS011;9256;52.236;5.712;2023-07-16T03:14:42;8.75;;;2.45;;
18259;SDS011;9256;52.236;5.712;2023-07-16T03:17:09;9.48;;;2.78;;
18259;SDS011;9256;52.236;5.712;2023-07-16T03:19:36;13.32;;;2.88;;
18259;SDS011;9256;52.236;5.712;2023-07-16T03:22:03;10.32;;;2.80;;
18259;SDS011;9256;52.236;5.712;2023-07-16T03:24:30;10.52;;;3.20;;
18259;SDS011;9256;52.236;5.712;2023-07-16T03:26:57;11.63;;;2.60;;
18259;SDS011;9256;52.236;5.712;2023-07-16T03:29:26;8.85;;;2.33;;
18259;SDS011;9256;52.236;5.712;2023-07-16T03:31:52;10.07;;;2.60;;
18259;SDS011;9256;52.236;5.712;2023-07-16T03:34:19;9.32;;;2.85;;
18259;SDS011;9256;52.236;5.712;2023-07-16T03:36:46;10.10;;;2.65;;
18259;SDS011;9256;52.236;5.712;2023-07-16T03:39:13;10.10;;;2.70;;
18259;SDS011;9256;52.236;5.712;2023-07-16T03:41:40;7.43;;;2.70;;
18259;SDS011;9256;52.236;5.712;2023-07-16T03:44:07;7.55;;;2.25;;
18259;SDS011;9256;52.236;5.712;2023-07-16T03:46:35;7.70;;;2.58;;
18259;SDS011;9256;52.236;5.712;2023-07-16T03:49:02;9.70;;;2.85;;
18259;SDS011;9256;52.236;5.712;2023-07-16T03:51:32;7.95;;;2.70;;
18259;SDS011;9256;52.236;5.712;2023-07-16T03:53:59;8.13;;;2.63;;
18259;SDS011;9256;52.236;5.712;2023-07-16T03:56:26;11.52;;;2.70;;
18259;SDS011;9256;52.236;5.712;2023-07-16T03:58:53;7.95;;;2.47;;
18259;SDS011;9256;52.236;5.712;2023-07-16T04:01:20;11.45;;;2.85;;
18259;SDS011;9256;52.236;5.712;2023-07-16T04:03:48;9.10;;;2.72;;
18259;SDS011;9256;52.236;5.712;2023-07-16T04:06:15;11.60;;;2.72;;
18259;SDS011;9256;52.236;5.712;2023-07-16T04:08:42;8.32;;;2.45;;
18259;SDS011;9256;52.236;5.712;2023-07-16T04:11:09;11.48;;;2.72;;
18259;SDS011;9256;52.236;5.712;2023-07-16T04:13:36;8.45;;;2.58;;
18259;SDS011;9256;52.236;5.712;2023-07-16T04:16:03;11.32;;;2.80;;
18259;SDS011;9256;52.236;5.712;2023-07-16T04:18:30;6.82;;;2.28;;
18259;SDS011;9256;52.236;5.712;2023-07-16T04:20:58;10.70;;;2.85;;
18259;SDS011;9256;52.236;5.712;2023-07-16T04:23:25;8.95;;;2.58;;
18259;SDS011;9256;52.236;5.712;2023-07-16T04:25:52;9.27;;;2.80;;
18259;SDS011;9256;52.236;5.712;2023-07-16T04:28:21;10.85;;;2.83;;
18259;SDS011;9256;52.236;5.712;2023-07-16T04:30:48;6.53;;;2.42;;
18259;SDS011;9256;52.236;5.712;2023-07-16T04:33:15;7.22;;;2.40;;
18259;SDS011;9256;52.236;5.712;2023-07-16T04:35:42;13.43;;;2.78;;
18259;SDS011;9256;52.236;5.712;2023-07-16T04:38:10;8.80;;;2.70;;
18259;SDS011;9256;52.236;5.712;2023-07-16T04:40:37;10.30;;;2.90;;
18259;SDS011;9256;52.236;5.712;2023-07-16T04:43:04;10.98;;;2.85;;
18259;SDS011;9256;52.236;5.712;2023-07-16T04:45:30;10.82;;;2.85;;
18259;SDS011;9256;52.236;5.712;2023-07-16T04:47:57;11.98;;;3.13;;
18259;SDS011;9256;52.236;5.712;2023-07-16T04:50:25;7.13;;;3.00;;
18259;SDS011;9256;52.236;5.712;2023-07-16T04:52:52;9.23;;;3.08;;
18259;SDS011;9256;52.236;5.712;2023-07-16T04:55:20;8.75;;;3.15;;
18259;SDS011;9256;52.236;5.712;2023-07-16T04:57:47;9.35;;;3.10;;
18259;SDS011;9256;52.236;5.712;2023-07-16T05:00:14;10.13;;;3.40;;
18259;SDS011;9256;52.236;5.712;2023-07-16T05:02:41;11.63;;;3.28;;
18259;SDS011;9256;52.236;5.712;2023-07-16T05:05:08;13.07;;;3.30;;
18259;SDS011;9256;52.236;5.712;2023-07-16T05:07:35;12.07;;;3.22;;
18259;SDS011;9256;52.236;5.712;2023-07-16T05:10:02;8.98;;;3.00;;
18259;SDS011;9256;52.236;5.712;2023-07-16T05:12:30;11.70;;;2.97;;
18259;SDS011;9256;52.236;5.712;2023-07-16T05:14:57;10.52;;;3.15;;
18259;SDS011;9256;52.236;5.712;2023-07-16T05:17:24;8.65;;;3.03;;
18259;SDS011;9256;52.236;5.712;2023-07-16T05:19:51;10.07;;;3.03;;
18259;SDS011;9256;52.236;5.712;2023-07-16T05:22:18;8.77;;;2.92;;
18259;SDS011;9256;52.236;5.712;2023-07-16T05:24:45;8.52;;;3.10;;
18259;SDS011;9256;52.236;5.712;2023-07-16T05:27:12;10.25;;;3.50;;
18259;SDS011;9256;52.236;5.712;2023-07-16T05:29:40;10.82;;;3.10;;
18259;SDS011;9256;52.236;5.712;2023-07-16T05:32:07;11.68;;;3.30;;
18259;SDS011;9256;52.236;5.712;2023-07-16T05:34:34;10.25;;;3.33;;
18259;SDS011;9256;52.236;5.712;2023-07-16T05:37:01;8.70;;;3.17;;
18259;SDS011;9256;52.236;5.712;2023-07-16T05:39:29;12.80;;;3.45;;
18259;SDS011;9256;52.236;5.712;2023-07-16T05:41:55;14.95;;;3.67;;
18259;SDS011;9256;52.236;5.712;2023-07-16T05:44:22;9.43;;;3.53;;
18259;SDS011;9256;52.236;5.712;2023-07-16T05:46:51;12.25;;;3.33;;
18259;SDS011;9256;52.236;5.712;2023-07-16T05:49:17;11.32;;;4.20;;
18259;SDS011;9256;52.236;5.712;2023-07-16T05:51:44;10.30;;;3.85;;
18259;SDS011;9256;52.236;5.712;2023-07-16T05:54:11;15.38;;;3.80;;
18259;SDS011;9256;52.236;5.712;2023-07-16T05:56:38;10.73;;;3.42;;
18259;SDS011;9256;52.236;5.712;2023-07-16T05:59:08;15.10;;;3.50;;
18259;SDS011;9256;52.236;5.712;2023-07-16T06:01:35;11.85;;;3.63;;
18259;SDS011;9256;52.236;5.712;2023-07-16T06:04:03;11.75;;;3.70;;
18259;SDS011;9256;52.236;5.712;2023-07-16T06:06:30;12.40;;;3.72;;
18259;SDS011;9256;52.236;5.712;2023-07-16T06:09:00;11.30;;;3.58;;
18259;SDS011;9256;52.236;5.712;2023-07-16T06:11:27;10.85;;;3.88;;
18259;SDS011;9256;52.236;5.712;2023-07-16T06:13:54;11.48;;;3.95;;
18259;SDS011;9256;52.236;5.712;2023-07-16T06:16:21;10.40;;;4.03;;
18259;SDS011;9256;52.236;5.712;2023-07-16T06:18:48;10.43;;;3.67;;
18259;SDS011;9256;52.236;5.712;2023-07-16T06:21:16;11.98;;;3.65;;
18259;SDS011;9256;52.236;5.712;2023-07-16T06:23:43;13.32;;;3.83;;
18259;SDS011;9256;52.236;5.712;2023-07-16T06:26:10;11.77;;;4.40;;
18259;SDS011;9256;52.236;5.712;2023-07-16T06:28:37;11.48;;;4.40;;
18259;SDS011;9256;52.236;5.712;2023-07-16T06:31:04;12.57;;;3.70;;
18259;SDS011;9256;52.236;5.712;2023-07-16T06:33:31;9.85;;;3.70;;
18259;SDS011;9256;52.236;5.712;2023-07-16T06:35:58;11.43;;;4.07;;
18259;SDS011;9256;52.236;5.712;2023-07-16T06:38:26;13.38;;;4.57;;
18259;SDS011;9256;52.236;5.712;2023-07-16T06:40:53;14.45;;;3.85;;
18259;SDS011;9256;52.236;5.712;2023-07-16T06:43:20;12.43;;;3.53;;
18259;SDS011;9256;52.236;5.712;2023-07-16T06:45:48;13.32;;;4.10;;
18259;SDS011;9256;52.236;5.712;2023-07-16T06:48:16;10.13;;;3.58;;
18259;SDS011;9256;52.236;5.712;2023-07-16T06:50:43;9.32;;;3.53;;
18259;SDS011;9256;52.236;5.712;2023-07-16T06:53:10;12.38;;;4.43;;
18259;SDS011;9256;52.236;5.712;2023-07-16T06:55:38;7.90;;;3.90;;
18259;SDS011;9256;52.236;5.712;2023-07-16T06:58:05;10.85;;;3.80;;
18259;SDS011;9256;52.236;5.712;2023-07-16T07:00:36;10.90;;;4.20;;
18259;SDS011;9256;52.236;5.712;2023-07-16T07:03:02;12.90;;;4.28;;
18259;SDS011;9256;52.236;5.712;2023-07-16T07:05:29;13.55;;;4.00;;
18259;SDS011;9256;52.236;5.712;2023-07-16T07:07:56;11.43;;;4.28;;
18259;SDS011;9256;52.236;5.712;2023-07-16T07:10:23;12.05;;;4.13;;
18259;SDS011;9256;52.236;5.712;2023-07-16T07:12:51;11.57;;;4.50;;
18259;SDS011;9256;52.236;5.712;2023-07-16T07:15:18;11.88;;;4.05;;
18259;SDS011;9256;52.236;5.712;2023-07-16T07:17:45;11.50;;;4.40;;
18259;SDS011;9256;52.236;5.712;2023-07-16T07:20:13;10.25;;;4.00;;
18259;SDS011;9256;52.236;5.712;2023-07-16T07:22:40;8.88;;;3.95;;
18259;SDS011;9256;52.236;5.712;2023-07-16T07:25:07;10.27;;;4.13;;
18259;SDS011;9256;52.236;5.712;2023-07-16T07:27:34;10.07;;;3.67;;
18259;SDS011;9256;52.236;5.712;2023-07-16T07:30:03;18.02;;;4.93;;
18259;SDS011;9256;52.236;5.712;2023-07-16T07:32:30;11.52;;;4.10;;
18259;SDS011;9256;52.236;5.712;2023-07-16T07:34:57;10.48;;;3.88;;
18259;SDS011;9256;52.236;5.712;2023-07-16T07:37:24;9.82;;;3.90;;
18259;SDS011;9256;52.236;5.712;2023-07-16T07:39:51;12.32;;;3.90;;
18259;SDS011;9256;52.236;5.712;2023-07-16T07:42:19;15.05;;;4.63;;
18259;SDS011;9256;52.236;5.712;2023-07-16T07:44:45;12.73;;;4.72;;
18259;SDS011;9256;52.236;5.712;2023-07-16T07:47:14;10.93;;;4.00;;
18259;SDS011;9256;52.236;5.712;2023-07-16T07:49:41;14.27;;;4.15;;
18259;SDS011;9256;52.236;5.712;2023-07-16T07:52:08;10.48;;;3.60;;
18259;SDS011;9256;52.236;5.712;2023-07-16T07:54:35;15.80;;;3.72;;
18259;SDS011;9256;52.236;5.712;2023-07-16T07:57:02;11.65;;;3.53;;
18259;SDS011;9256;52.236;5.712;2023-07-16T07:59:30;9.80;;;3.80;;
18259;SDS011;9256;52.236;5.712;2023-07-16T08:01:57;10.83;;;4.00;;
18259;SDS011;9256;52.236;5.712;2023-07-16T08:04:26;12.10;;;3.83;;
18259;SDS011;9256;52.236;5.712;2023-07-16T08:06:53;8.02;;;3.75;;
18259;SDS011;9256;52.236;5.712;2023-07-16T08:09:20;11.43;;;3.90;;
18259;SDS011;9256;52.236;5.712;2023-07-16T08:11:47;12.07;;;4.32;;
18259;SDS011;9256;52.236;5.712;2023-07-16T08:14:14;11.18;;;3.85;;
18259;SDS011;9256;52.236;5.712;2023-07-16T08:16:41;12.05;;;4.45;;
18259;SDS011;9256;52.236;5.712;2023-07-16T08:19:08;10.07;;;3.92;;
18259;SDS011;9256;52.236;5.712;2023-07-16T08:21:36;11.93;;;4.03;;
18259;SDS011;9256;52.236;5.712;2023-07-16T08:24:04;11.23;;;3.65;;
18259;SDS011;9256;52.236;5.712;2023-07-16T08:26:31;13.75;;;4.75;;
18259;SDS011;9256;52.236;5.712;2023-07-16T08:28:59;11.68;;;4.20;;
18259;SDS011;9256;52.236;5.712;2023-07-16T08:31:26;12.10;;;3.97;;
18259;SDS011;9256;52.236;5.712;2023-07-16T08:33:53;14.23;;;3.95;;
18259;SDS011;9256;52.236;5.712;2023-07-16T08:36:20;11.77;;;4.50;;
18259;SDS011;9256;52.236;5.712;2023-07-16T08:38:48;12.40;;;4.13;;
18259;SDS011;9256;52.236;5.712;2023-07-16T08:41:15;9.73;;;3.95;;
18259;SDS011;9256;52.236;5.712;2023-07-16T08:43:42;9.63;;;3.88;;
18259;SDS011;9256;52.236;5.712;2023-07-16T08:46:11;8.43;;;3.60;;
18259;SDS011;9256;52.236;5.712;2023-07-16T08:48:38;13.00;;;4.35;;
18259;SDS011;9256;52.236;5.712;2023-07-16T08:51:06;13.02;;;3.92;;
18259;SDS011;9256;52.236;5.712;2023-07-16T08:53:35;15.95;;;4.60;;
18259;SDS011;9256;52.236;5.712;2023-07-16T08:56:04;8.55;;;4.05;;
18259;SDS011;9256;52.236;5.712;2023-07-16T08:58:31;12.13;;;4.45;;
18259;SDS011;9256;52.236;5.712;2023-07-16T09:00:59;12.05;;;4.30;;
18259;SDS011;9256;52.236;5.712;2023-07-16T09:03:26;14.73;;;4.72;;
18259;SDS011;9256;52.236;5.712;2023-07-16T09:05:53;14.73;;;4.93;;
18259;SDS011;9256;52.236;5.712;2023-07-16T09:08:20;8.88;;;4.18;;
18259;SDS011;9256;52.236;5.712;2023-07-16T09:10:53;15.60;;;4.53;;
18259;SDS011;9256;52.236;5.712;2023-07-16T09:13:22;14.43;;;3.80;;
18259;SDS011;9256;52.236;5.712;2023-07-16T09:15:52;12.35;;;4.00;;
18259;SDS011;9256;52.236;5.712;2023-07-16T09:18:20;9.50;;;3.97;;
18259;SDS011;9256;52.236;5.712;2023-07-16T09:20:47;11.27;;;4.63;;
18259;SDS011;9256;52.236;5.712;2023-07-16T09:23:16;11.00;;;4.25;;
18259;SDS011;9256;52.236;5.712;2023-07-16T09:25:44;11.20;;;4.20;;
18259;SDS011;9256;52.236;5.712;2023-07-16T09:28:11;10.75;;;4.18;;
18259;SDS011;9256;52.236;5.712;2023-07-16T09:30:40;13.13;;;4.10;;
18259;SDS011;9256;52.236;5.712;2023-07-16T09:33:10;10.65;;;4.20;;
18259;SDS011;9256;52.236;5.712;2023-07-16T09:35:39;11.30;;;4.35;;
18259;SDS011;9256;52.236;5.712;2023-07-16T09:38:07;13.10;;;4.70;;
18259;SDS011;9256;52.236;5.712;2023-07-16T09:40:35;10.73;;;4.32;;
18259;SDS011;9256;52.236;5.712;2023-07-16T09:43:02;12.88;;;4.55;;
18259;SDS011;9256;52.236;5.712;2023-07-16T09:45:29;12.98;;;4.80;;
18259;SDS011;9256;52.236;5.712;2023-07-16T09:47:58;9.50;;;4.30;;
18259;SDS011;9256;52.236;5.712;2023-07-16T09:50:25;15.15;;;4.47;;
18259;SDS011;9256;52.236;5.712;2023-07-16T09:52:55;13.05;;;4.35;;
18259;SDS011;9256;52.236;5.712;2023-07-16T09:55:22;11.00;;;4.35;;
18259;SDS011;9256;52.236;5.712;2023-07-16T09:57:51;13.57;;;4.40;;
18259;SDS011;9256;52.236;5.712;2023-07-16T10:00:19;11.60;;;4.07;;
18259;SDS011;9256;52.236;5.712;2023-07-16T10:02:49;9.77;;;3.95;;
18259;SDS011;9256;52.236;5.712;2023-07-16T10:05:19;10.38;;;4.18;;
18259;SDS011;9256;52.236;5.712;2023-07-16T10:07:50;17.27;;;4.40;;
18259;SDS011;9256;52.236;5.712;2023-07-16T10:10:18;8.75;;;3.85;;
18259;SDS011;9256;52.236;5.712;2023-07-16T10:12:54;9.40;;;3.85;;
18259;SDS011;9256;52.236;5.712;2023-07-16T10:15:24;10.45;;;3.88;;
18259;SDS011;9256;52.236;5.712;2023-07-16T10:17:53;9.70;;;3.42;;
18259;SDS011;9256;52.236;5.712;2023-07-16T10:20:29;12.05;;;4.10;;
18259;SDS011;9256;52.236;5.712;2023-07-16T10:22:56;11.60;;;3.63;;
18259;SDS011;9256;52.236;5.712;2023-07-16T10:25:25;10.38;;;3.45;;
18259;SDS011;9256;52.236;5.712;2023-07-16T10:27:54;10.73;;;4.20;;
18259;SDS011;9256;52.236;5.712;2023-07-16T10:30:21;8.63;;;3.63;;
18259;SDS011;9256;52.236;5.712;2023-07-16T10:32:50;9.88;;;3.95;;
18259;SDS011;9256;52.236;5.712;2023-07-16T10:35:18;12.60;;;4.20;;
18259;SDS011;9256;52.236;5.712;2023-07-16T10:37:46;10.88;;;3.55;;
18259;SDS011;9256;52.236;5.712;2023-07-16T10:40:14;12.18;;;4.38;;
18259;SDS011;9256;52.236;5.712;2023-07-16T10:42:42;9.60;;;3.88;;
18259;SDS011;9256;52.236;5.712;2023-07-16T10:45:11;10.70;;;3.67;;
18259;SDS011;9256;52.236;5.712;2023-07-16T10:47:39;11.77;;;3.92;;
18259;SDS011;9256;52.236;5.712;2023-07-16T10:50:18;12.35;;;4.20;;
18259;SDS011;9256;52.236;5.712;2023-07-16T10:52:49;12.52;;;4.13;;
18259;SDS011;9256;52.236;5.712;2023-07-16T10:55:17;10.82;;;3.92;;
18259;SDS011;9256;52.236;5.712;2023-07-16T10:57:46;13.77;;;4.05;;
18259;SDS011;9256;52.236;5.712;2023-07-16T11:00:13;11.00;;;4.07;;
18259;SDS011;9256;52.236;5.712;2023-07-16T11:02:41;12.57;;;4.40;;
18259;SDS011;9256;52.236;5.712;2023-07-16T11:05:09;11.98;;;4.40;;
18259;SDS011;9256;52.236;5.712;2023-07-16T11:07:37;11.73;;;3.92;;
18259;SDS011;9256;52.236;5.712;2023-07-16T11:10:06;13.30;;;4.13;;
18259;SDS011;9256;52.236;5.712;2023-07-16T11:12:34;13.05;;;4.30;;
18259;SDS011;9256;52.236;5.712;2023-07-16T11:15:01;12.13;;;4.18;;
18259;SDS011;9256;52.236;5.712;2023-07-16T11:17:28;11.68;;;4.20;;
18259;SDS011;9256;52.236;5.712;2023-07-16T11:19:55;13.77;;;4.40;;
18259;SDS011;9256;52.236;5.712;2023-07-16T11:22:24;15.27;;;4.38;;
18259;SDS011;9256;52.236;5.712;2023-07-16T11:24:51;12.52;;;3.72;;
18259;SDS011;9256;52.236;5.712;2023-07-16T11:27:21;9.75;;;3.80;;
18259;SDS011;9256;52.236;5.712;2023-07-16T11:29:50;12.60;;;3.95;;
18259;SDS011;9256;52.236;5.712;2023-07-16T11:32:28;12.05;;;4.28;;
18259;SDS011;9256;52.236;5.712;2023-07-16T11:34:57;9.88;;;4.13;;
18259;SDS011;9256;52.236;5.712;2023-07-16T11:37:24;11.30;;;4.00;;
18259;SDS011;9256;52.236;5.712;2023-07-16T11:39:54;9.90;;;3.97;;
18259;SDS011;9256;52.236;5.712;2023-07-16T11:42:29;15.30;;;4.60;;
18259;SDS011;9256;52.236;5.712;2023-07-16T11:44:57;9.93;;;3.92;;
18259;SDS011;9256;52.236;5.712;2023-07-16T11:47:24;9.63;;;3.55;;
18259;SDS011;9256;52.236;5.712;2023-07-16T11:49:52;13.00;;;4.22;;
18259;SDS011;9256;52.236;5.712;2023-07-16T11:52:20;9.95;;;4.22;;
18259;SDS011;9256;52.236;5.712;2023-07-16T11:54:47;11.50;;;4.10;;
18259;SDS011;9256;52.236;5.712;2023-07-16T11:57:14;9.07;;;3.70;;
18259;SDS011;9256;52.236;5.712;2023-07-16T11:59:43;8.90;;;4.00;;
18259;SDS011;9256;52.236;5.712;2023-07-16T12:02:10;8.50;;;3.60;;
18259;SDS011;9256;52.236;5.712;2023-07-16T12:04:37;10.00;;;3.83;;
18259;SDS011;9256;52.236;5.712;2023-07-16T12:07:04;12.43;;;4.10;;
18259;SDS011;9256;52.236;5.712;2023-07-16T12:09:31;9.27;;;3.47;;
18259;SDS011;9256;52.236;5.712;2023-07-16T12:11:58;7.90;;;3.30;;
18259;SDS011;9256;52.236;5.712;2023-07-16T12:14:26;9.50;;;3.17;;
18259;SDS011;9256;52.236;5.712;2023-07-16T12:16:54;6.50;;;2.50;;
18259;SDS011;9256;52.236;5.712;2023-07-16T12:19:22;9.32;;;2.00;;
18259;SDS011;9256;52.236;5.712;2023-07-16T12:21:49;5.88;;;2.38;;
18259;SDS011;9256;52.236;5.712;2023-07-16T12:24:16;5.93;;;2.33;;
18259;SDS011;9256;52.236;5.712;2023-07-16T12:26:43;7.80;;;3.20;;
18259;SDS011;9256;52.236;5.712;2023-07-16T12:29:10;9.85;;;3.45;;
18259;SDS011;9256;52.236;5.712;2023-07-16T12:31:36;8.55;;;3.95;;
18259;SDS011;9256;52.236;5.712;2023-07-16T12:34:05;9.98;;;3.70;;
18259;SDS011;9256;52.236;5.712;2023-07-16T12:36:32;10.43;;;3.65;;
18259;SDS011;9256;52.236;5.712;2023-07-16T12:38:59;10.70;;;3.53;;
18259;SDS011;9256;52.236;5.712;2023-07-16T12:41:26;6.63;;;2.80;;
18259;SDS011;9256;52.236;5.712;2023-07-16T12:43:53;6.18;;;3.10;;
18259;SDS011;9256;52.236;5.712;2023-07-16T12:46:20;8.00;;;3.08;;
18259;SDS011;9256;52.236;5.712;2023-07-16T12:48:46;7.05;;;2.80;;
18259;SDS011;9256;52.236;5.712;2023-07-16T12:51:15;6.65;;;3.20;;
18259;SDS011;9256;52.236;5.712;2023-07-16T12:53:42;9.07;;;3.08;;
18259;SDS011;9256;52.236;5.712;2023-07-16T12:56:09;7.82;;;2.65;;
18259;SDS011;9256;52.236;5.712;2023-07-16T12:58:36;7.50;;;2.75;;
18259;SDS011;9256;52.236;5.712;2023-07-16T13:01:03;8.02;;;2.90;;
18259;SDS011;9256;52.236;5.712;2023-07-16T13:03:30;7.15;;;2.83;;
18259;SDS011;9256;52.236;5.712;2023-07-16T13:05:57;7.83;;;2.90;;
18259;SDS011;9256;52.236;5.712;2023-07-16T13:08:25;6.03;;;2.60;;
18259;SDS011;9256;52.236;5.712;2023-07-16T13:10:52;7.65;;;2.38;;
18259;SDS011;9256;52.236;5.712;2023-07-16T13:13:19;7.05;;;2.50;;
18259;SDS011;9256;52.236;5.712;2023-07-16T13:15:47;7.60;;;2.50;;
18259;SDS011;9256;52.236;5.712;2023-07-16T13:18:14;6.47;;;2.35;;
18259;SDS011;9256;52.236;5.712;2023-07-16T13:20:42;5.90;;;2.13;;
18259;SDS011;9256;52.236;5.712;2023-07-16T13:23:09;5.85;;;2.20;;
18259;SDS011;9256;52.236;5.712;2023-07-16T13:25:37;7.45;;;2.20;;
18259;SDS011;9256;52.236;5.712;2023-07-16T13:28:04;6.10;;;2.50;;
18259;SDS011;9256;52.236;5.712;2023-07-16T13:30:31;6.50;;;2.15;;
18259;SDS011;9256;52.236;5.712;2023-07-16T13:32:58;5.40;;;2.17;;
18259;SDS011;9256;52.236;5.712;2023-07-16T13:35:26;5.45;;;2.05;;
18259;SDS011;9256;52.236;5.712;2023-07-16T13:37:53;8.15;;;2.45;;
18259;SDS011;9256;52.236;5.712;2023-07-16T13:40:20;4.03;;;1.65;;
18259;SDS011;9256;52.236;5.712;2023-07-16T13:42:48;6.28;;;1.30;;
18259;SDS011;9256;52.236;5.712;2023-07-16T13:45:15;3.97;;;1.33;;
18259;SDS011;9256;52.236;5.712;2023-07-16T13:47:42;6.70;;;1.25;;
18259;SDS011;9256;52.236;5.712;2023-07-16T13:50:09;5.47;;;1.50;;
18259;SDS011;9256;52.236;5.712;2023-07-16T13:52:36;5.75;;;1.80;;
18259;SDS011;9256;52.236;5.712;2023-07-16T13:55:04;12.57;;;1.63;;
18259;SDS011;9256;52.236;5.712;2023-07-16T13:57:31;2.25;;;1.23;;
18259;SDS011;9256;52.236;5.712;2023-07-16T13:59:59;4.65;;;1.45;;
18259;SDS011;9256;52.236;5.712;2023-07-16T14:02:26;5.30;;;1.70;;
18259;SDS011;9256;52.236;5.712;2023-07-16T14:04:54;4.88;;;1.60;;
18259;SDS011;9256;52.236;5.712;2023-07-16T14:07:21;3.90;;;1.30;;
18259;SDS011;9256;52.236;5.712;2023-07-16T14:09:48;4.55;;;1.50;;
18259;SDS011;9256;52.236;5.712;2023-07-16T14:12:15;4.07;;;1.67;;
18259;SDS011;9256;52.236;5.712;2023-07-16T14:14:42;5.55;;;1.65;;
18259;SDS011;9256;52.236;5.712;2023-07-16T14:17:11;7.40;;;1.92;;
18259;SDS011;9256;52.236;5.712;2023-07-16T14:19:37;7.10;;;2.13;;
18259;SDS011;9256;52.236;5.712;2023-07-16T14:22:04;5.00;;;1.70;;
18259;SDS011;9256;52.236;5.712;2023-07-16T14:24:31;6.47;;;1.77;;
18259;SDS011;9256;52.236;5.712;2023-07-16T14:26:58;7.28;;;1.88;;
18259;SDS011;9256;52.236;5.712;2023-07-16T14:29:27;7.45;;;1.80;;
18259;SDS011;9256;52.236;5.712;2023-07-16T14:31:54;5.78;;;1.52;;
18259;SDS011;9256;52.236;5.712;2023-07-16T14:34:23;4.75;;;1.60;;
18259;SDS011;9256;52.236;5.712;2023-07-16T14:36:51;6.15;;;1.90;;
18259;SDS011;9256;52.236;5.712;2023-07-16T14:39:18;4.47;;;1.55;;
18259;SDS011;9256;52.236;5.712;2023-07-16T14:41:46;6.60;;;1.70;;
18259;SDS011;9256;52.236;5.712;2023-07-16T14:44:13;6.85;;;1.90;;
18259;SDS011;9256;52.236;5.712;2023-07-16T14:46:40;5.50;;;1.50;;
18259;SDS011;9256;52.236;5.712;2023-07-16T14:49:06;3.15;;;1.40;;
18259;SDS011;9256;52.236;5.712;2023-07-16T14:51:35;5.93;;;1.25;;
18259;SDS011;9256;52.236;5.712;2023-07-16T14:54:04;4.13;;;1.10;;
18259;SDS011;9256;52.236;5.712;2023-07-16T14:56:32;5.38;;;1.15;;
18259;SDS011;9256;52.236;5.712;2023-07-16T14:58:59;4.82;;;1.20;;
18259;SDS011;9256;52.236;5.712;2023-07-16T15:01:26;4.68;;;1.10;;